sensor_id;sensor_type;location;lat;lon;timestamp;P1;durP1;ratioP1;P2;durP2;ratioP2
45039;SDS011;30778;53.574;7.770;2023-06-04T00:01:21;7.70;;;1.35;;
45039;SDS011;30778;53.574;7.770;2023-06-04T00:03:47;4.55;;;0.85;;
45039;SDS011;30778;53.574;7.770;2023-06-04T00:06:12;3.92;;;1.30;;
45039;SDS011;30778;53.574;7.770;2023-06-04T00:08:38;8.93;;;1.95;;
45039;SDS011;30778;53.574;7.770;2023-06-04T00:11:03;3.45;;;1.23;;
45039;SDS011;30778;53.574;7.770;2023-06-04T00:13:29;6.93;;;2.10;;
45039;SDS011;30778;53.574;7.770;2023-06-04T00:15:59;3.78;;;1.65;;
45039;SDS011;30778;53.574;7.770;2023-06-04T00:18:24;6.13;;;1.92;;
45039;SDS011;30778;53.574;7.770;2023-06-04T00:20:50;4.25;;;1.67;;
45039;SDS011;30778;53.574;7.770;2023-06-04T00:23:16;4.18;;;1.83;;
45039;SDS011;30778;53.574;7.770;2023-06-04T00:25:41;5.38;;;2.38;;
45039;SDS011;30778;53.574;7.770;2023-06-04T00:28:07;10.25;;;2.10;;
45039;SDS011;30778;53.574;7.770;2023-06-04T00:30:35;3.88;;;1.65;;
45039;SDS011;30778;53.574;7.770;2023-06-04T00:33:00;8.77;;;1.88;;
45039;SDS011;30778;53.574;7.770;2023-06-04T00:35:26;8.00;;;2.38;;
45039;SDS011;30778;53.574;7.770;2023-06-04T00:37:51;6.68;;;2.40;;
45039;SDS011;30778;53.574;7.770;2023-06-04T00:40:17;6.70;;;2.42;;
45039;SDS011;30778;53.574;7.770;2023-06-04T00:42:43;5.38;;;2.60;;
45039;SDS011;30778;53.574;7.770;2023-06-04T00:45:10;5.70;;;2.13;;
45039;SDS011;30778;53.574;7.770;2023-06-04T00:47:36;4.25;;;2.35;;
45039;SDS011;30778;53.574;7.770;2023-06-04T00:50:01;4.38;;;2.80;;
45039;SDS011;30778;53.574;7.770;2023-06-04T00:52:27;8.45;;;2.65;;
45039;SDS011;30778;53.574;7.770;2023-06-04T00:54:53;6.57;;;2.40;;
45039;SDS011;30778;53.574;7.770;2023-06-04T00:57:22;5.03;;;2.83;;
45039;SDS011;30778;53.574;7.770;2023-06-04T00:59:50;5.97;;;3.05;;
45039;SDS011;30778;53.574;7.770;2023-06-04T01:02:16;5.57;;;3.08;;
45039;SDS011;30778;53.574;7.770;2023-06-04T01:07:19;4.10;;;2.95;;
45039;SDS011;30778;53.574;7.770;2023-06-04T01:09:48;5.63;;;2.85;;
45039;SDS011;30778;53.574;7.770;2023-06-04T01:12:14;8.55;;;3.05;;
45039;SDS011;30778;53.574;7.770;2023-06-04T01:14:40;6.10;;;3.35;;
45039;SDS011;30778;53.574;7.770;2023-06-04T01:22:29;7.65;;;3.95;;
45039;SDS011;30778;53.574;7.770;2023-06-04T01:27:57;6.45;;;2.78;;
45039;SDS011;30778;53.574;7.770;2023-06-04T01:30:23;8.25;;;3.28;;
45039;SDS011;30778;53.574;7.770;2023-06-04T01:32:51;6.18;;;3.55;;
45039;SDS011;30778;53.574;7.770;2023-06-04T01:35:20;7.93;;;3.30;;
45039;SDS011;30778;53.574;7.770;2023-06-04T01:37:46;3.95;;;2.42;;
45039;SDS011;30778;53.574;7.770;2023-06-04T01:40:12;3.90;;;2.25;;
45039;SDS011;30778;53.574;7.770;2023-06-04T01:42:38;8.65;;;3.13;;
45039;SDS011;30778;53.574;7.770;2023-06-04T01:45:06;5.95;;;3.17;;
45039;SDS011;30778;53.574;7.770;2023-06-04T01:47:32;8.57;;;3.63;;
45039;SDS011;30778;53.574;7.770;2023-06-04T01:49:59;6.28;;;3.00;;
45039;SDS011;30778;53.574;7.770;2023-06-04T01:52:24;10.90;;;4.22;;
45039;SDS011;30778;53.574;7.770;2023-06-04T01:54:50;5.20;;;3.22;;
45039;SDS011;30778;53.574;7.770;2023-06-04T01:57:21;9.93;;;2.67;;
45039;SDS011;30778;53.574;7.770;2023-06-04T01:59:46;4.47;;;3.00;;
45039;SDS011;30778;53.574;7.770;2023-06-04T02:02:13;7.35;;;3.67;;
45039;SDS011;30778;53.574;7.770;2023-06-04T02:04:39;5.82;;;3.17;;
45039;SDS011;30778;53.574;7.770;2023-06-04T02:07:08;7.82;;;3.60;;
45039;SDS011;30778;53.574;7.770;2023-06-04T02:09:34;5.63;;;2.63;;
45039;SDS011;30778;53.574;7.770;2023-06-04T02:12:00;11.45;;;2.72;;
45039;SDS011;30778;53.574;7.770;2023-06-04T02:14:26;6.55;;;3.22;;
45039;SDS011;30778;53.574;7.770;2023-06-04T02:16:52;12.65;;;3.35;;
45039;SDS011;30778;53.574;7.770;2023-06-04T02:19:23;4.75;;;3.17;;
45039;SDS011;30778;53.574;7.770;2023-06-04T02:21:51;5.15;;;2.45;;
45039;SDS011;30778;53.574;7.770;2023-06-04T02:24:17;6.65;;;2.50;;
45039;SDS011;30778;53.574;7.770;2023-06-04T02:26:42;3.78;;;2.25;;
45039;SDS011;30778;53.574;7.770;2023-06-04T02:29:08;7.20;;;2.53;;
45039;SDS011;30778;53.574;7.770;2023-06-04T02:31:33;5.82;;;3.08;;
45039;SDS011;30778;53.574;7.770;2023-06-04T02:33:59;7.32;;;2.97;;
45039;SDS011;30778;53.574;7.770;2023-06-04T02:36:24;7.38;;;2.53;;
45039;SDS011;30778;53.574;7.770;2023-06-04T02:38:50;5.85;;;3.53;;
45039;SDS011;30778;53.574;7.770;2023-06-04T02:41:16;4.22;;;2.90;;
45039;SDS011;30778;53.574;7.770;2023-06-04T02:43:41;4.28;;;2.35;;
45039;SDS011;30778;53.574;7.770;2023-06-04T02:46:07;3.03;;;2.17;;
45039;SDS011;30778;53.574;7.770;2023-06-04T02:48:32;5.32;;;2.85;;
45039;SDS011;30778;53.574;7.770;2023-06-04T02:50:58;4.65;;;2.15;;
45039;SDS011;30778;53.574;7.770;2023-06-04T02:53:23;6.30;;;2.70;;
45039;SDS011;30778;53.574;7.770;2023-06-04T02:55:49;7.10;;;2.40;;
45039;SDS011;30778;53.574;7.770;2023-06-04T02:58:18;8.70;;;3.10;;
45039;SDS011;30778;53.574;7.770;2023-06-04T03:00:44;4.55;;;1.90;;
45039;SDS011;30778;53.574;7.770;2023-06-04T03:03:10;8.50;;;2.35;;
45039;SDS011;30778;53.574;7.770;2023-06-04T03:05:35;7.60;;;2.45;;
45039;SDS011;30778;53.574;7.770;2023-06-04T03:08:02;5.32;;;2.03;;
45039;SDS011;30778;53.574;7.770;2023-06-04T03:10:29;6.50;;;1.88;;
45039;SDS011;30778;53.574;7.770;2023-06-04T03:12:55;7.55;;;1.45;;
45039;SDS011;30778;53.574;7.770;2023-06-04T03:15:20;4.75;;;2.22;;
45039;SDS011;30778;53.574;7.770;2023-06-04T03:17:46;2.80;;;1.45;;
45039;SDS011;30778;53.574;7.770;2023-06-04T03:20:12;5.40;;;1.95;;
45039;SDS011;30778;53.574;7.770;2023-06-04T03:22:38;4.03;;;2.03;;
45039;SDS011;30778;53.574;7.770;2023-06-04T03:25:07;5.25;;;1.92;;
45039;SDS011;30778;53.574;7.770;2023-06-04T03:27:33;4.60;;;1.65;;
45039;SDS011;30778;53.574;7.770;2023-06-04T03:29:59;5.68;;;2.28;;
45039;SDS011;30778;53.574;7.770;2023-06-04T03:32:26;7.45;;;1.88;;
45039;SDS011;30778;53.574;7.770;2023-06-04T03:34:52;2.75;;;1.13;;
45039;SDS011;30778;53.574;7.770;2023-06-04T03:37:18;6.57;;;1.23;;
45039;SDS011;30778;53.574;7.770;2023-06-04T03:39:43;4.65;;;1.60;;
45039;SDS011;30778;53.574;7.770;2023-06-04T03:42:12;8.93;;;1.30;;
45039;SDS011;30778;53.574;7.770;2023-06-04T03:44:38;9.95;;;1.25;;
45039;SDS011;30778;53.574;7.770;2023-06-04T03:47:04;6.22;;;1.20;;
45039;SDS011;30778;53.574;7.770;2023-06-04T03:49:30;2.28;;;1.00;;
45039;SDS011;30778;53.574;7.770;2023-06-04T03:51:55;3.03;;;0.95;;
45039;SDS011;30778;53.574;7.770;2023-06-04T03:54:24;4.82;;;1.45;;
45039;SDS011;30778;53.574;7.770;2023-06-04T03:56:50;3.97;;;0.90;;
45039;SDS011;30778;53.574;7.770;2023-06-04T03:59:16;3.80;;;0.80;;
45039;SDS011;30778;53.574;7.770;2023-06-04T04:01:42;4.18;;;1.55;;
45039;SDS011;30778;53.574;7.770;2023-06-04T04:04:08;7.80;;;1.27;;
45039;SDS011;30778;53.574;7.770;2023-06-04T04:06:33;4.32;;;1.08;;
45039;SDS011;30778;53.574;7.770;2023-06-04T04:09:01;6.10;;;1.00;;
45039;SDS011;30778;53.574;7.770;2023-06-04T04:11:29;7.90;;;1.55;;
45039;SDS011;30778;53.574;7.770;2023-06-04T04:13:54;6.55;;;0.90;;
45039;SDS011;30778;53.574;7.770;2023-06-04T04:16:22;5.85;;;0.85;;
45039;SDS011;30778;53.574;7.770;2023-06-04T04:18:50;5.63;;;1.00;;
45039;SDS011;30778;53.574;7.770;2023-06-04T04:21:15;4.78;;;0.95;;
45039;SDS011;30778;53.574;7.770;2023-06-04T04:23:44;5.57;;;0.90;;
45039;SDS011;30778;53.574;7.770;2023-06-04T04:26:14;12.30;;;1.17;;
45039;SDS011;30778;53.574;7.770;2023-06-04T04:28:43;7.65;;;1.27;;
45039;SDS011;30778;53.574;7.770;2023-06-04T04:31:09;3.88;;;0.93;;
45039;SDS011;30778;53.574;7.770;2023-06-04T04:33:38;9.20;;;1.13;;
45039;SDS011;30778;53.574;7.770;2023-06-04T04:36:07;3.00;;;0.60;;
45039;SDS011;30778;53.574;7.770;2023-06-04T04:38:39;5.22;;;1.00;;
45039;SDS011;30778;53.574;7.770;2023-06-04T04:41:07;7.43;;;0.82;;
45039;SDS011;30778;53.574;7.770;2023-06-04T04:43:35;9.05;;;0.90;;
45039;SDS011;30778;53.574;7.770;2023-06-04T04:46:13;5.68;;;1.25;;
45039;SDS011;30778;53.574;7.770;2023-06-04T04:48:39;6.88;;;0.95;;
45039;SDS011;30778;53.574;7.770;2023-06-04T04:51:07;11.00;;;2.58;;
45039;SDS011;30778;53.574;7.770;2023-06-04T04:53:33;7.63;;;1.13;;
45039;SDS011;30778;53.574;7.770;2023-06-04T04:55:59;8.00;;;0.95;;
45039;SDS011;30778;53.574;7.770;2023-06-04T04:58:25;5.97;;;1.35;;
45039;SDS011;30778;53.574;7.770;2023-06-04T05:00:53;3.45;;;0.85;;
45039;SDS011;30778;53.574;7.770;2023-06-04T05:03:18;6.50;;;1.05;;
45039;SDS011;30778;53.574;7.770;2023-06-04T05:05:44;4.53;;;0.90;;
45039;SDS011;30778;53.574;7.770;2023-06-04T05:08:11;5.32;;;0.98;;
45039;SDS011;30778;53.574;7.770;2023-06-04T05:10:39;8.77;;;1.05;;
45039;SDS011;30778;53.574;7.770;2023-06-04T05:16:22;5.75;;;0.70;;
45039;SDS011;30778;53.574;7.770;2023-06-04T05:18:47;8.98;;;0.82;;
45039;SDS011;30778;53.574;7.770;2023-06-04T05:21:19;4.68;;;0.82;;
45039;SDS011;30778;53.574;7.770;2023-06-04T05:23:57;15.13;;;1.17;;
45039;SDS011;30778;53.574;7.770;2023-06-04T05:26:25;3.28;;;0.95;;
45039;SDS011;30778;53.574;7.770;2023-06-04T05:28:55;4.35;;;0.65;;
45039;SDS011;30778;53.574;7.770;2023-06-04T05:31:24;5.57;;;1.40;;
45039;SDS011;30778;53.574;7.770;2023-06-04T05:33:56;3.22;;;0.50;;
45039;SDS011;30778;53.574;7.770;2023-06-04T05:36:25;4.18;;;0.77;;
45039;SDS011;30778;53.574;7.770;2023-06-04T05:38:56;4.07;;;0.77;;
45039;SDS011;30778;53.574;7.770;2023-06-04T05:41:31;4.05;;;0.70;;
45039;SDS011;30778;53.574;7.770;2023-06-04T05:43:58;4.93;;;0.65;;
45039;SDS011;30778;53.574;7.770;2023-06-04T05:46:26;5.28;;;0.57;;
45039;SDS011;30778;53.574;7.770;2023-06-04T05:48:53;5.22;;;1.13;;
45039;SDS011;30778;53.574;7.770;2023-06-04T05:51:20;3.65;;;0.50;;
45039;SDS011;30778;53.574;7.770;2023-06-04T05:53:47;2.83;;;0.35;;
45039;SDS011;30778;53.574;7.770;2023-06-04T05:56:13;3.42;;;0.77;;
45039;SDS011;30778;53.574;7.770;2023-06-04T05:58:40;3.65;;;0.68;;
45039;SDS011;30778;53.574;7.770;2023-06-04T06:01:07;7.43;;;0.57;;
45039;SDS011;30778;53.574;7.770;2023-06-04T06:03:33;2.88;;;0.38;;
45039;SDS011;30778;53.574;7.770;2023-06-04T06:05:58;5.18;;;0.68;;
45039;SDS011;30778;53.574;7.770;2023-06-04T06:08:26;3.28;;;0.40;;
45039;SDS011;30778;53.574;7.770;2023-06-04T06:10:52;4.80;;;0.70;;
45039;SDS011;30778;53.574;7.770;2023-06-04T06:13:18;1.30;;;0.22;;
45039;SDS011;30778;53.574;7.770;2023-06-04T06:15:45;4.28;;;1.02;;
45039;SDS011;30778;53.574;7.770;2023-06-04T06:18:14;4.10;;;0.30;;
45039;SDS011;30778;53.574;7.770;2023-06-04T06:20:40;1.35;;;0.30;;
45039;SDS011;30778;53.574;7.770;2023-06-04T06:23:08;4.57;;;0.60;;
45039;SDS011;30778;53.574;7.770;2023-06-04T06:25:37;2.17;;;0.40;;
45039;SDS011;30778;53.574;7.770;2023-06-04T06:28:11;5.20;;;0.32;;
45039;SDS011;30778;53.574;7.770;2023-06-04T06:30:42;2.17;;;0.30;;
45039;SDS011;30778;53.574;7.770;2023-06-04T06:33:09;6.28;;;0.80;;
45039;SDS011;30778;53.574;7.770;2023-06-04T06:35:35;5.32;;;0.40;;
45039;SDS011;30778;53.574;7.770;2023-06-04T06:38:01;3.92;;;0.57;;
45039;SDS011;30778;53.574;7.770;2023-06-04T06:40:27;3.03;;;0.40;;
45039;SDS011;30778;53.574;7.770;2023-06-04T06:42:55;2.47;;;0.77;;
45039;SDS011;30778;53.574;7.770;2023-06-04T06:45:21;3.60;;;0.47;;
45039;SDS011;30778;53.574;7.770;2023-06-04T06:47:47;4.97;;;0.35;;
45039;SDS011;30778;53.574;7.770;2023-06-04T06:50:13;7.93;;;0.95;;
45039;SDS011;30778;53.574;7.770;2023-06-04T06:52:39;4.05;;;0.35;;
45039;SDS011;30778;53.574;7.770;2023-06-04T06:55:05;4.78;;;0.90;;
45039;SDS011;30778;53.574;7.770;2023-06-04T06:57:32;2.58;;;0.40;;
45039;SDS011;30778;53.574;7.770;2023-06-04T06:59:58;3.00;;;0.57;;
45039;SDS011;30778;53.574;7.770;2023-06-04T07:02:24;5.05;;;0.70;;
45039;SDS011;30778;53.574;7.770;2023-06-04T07:04:50;1.20;;;0.50;;
45039;SDS011;30778;53.574;7.770;2023-06-04T07:07:16;5.63;;;0.52;;
45039;SDS011;30778;53.574;7.770;2023-06-04T07:09:42;6.15;;;0.45;;
45039;SDS011;30778;53.574;7.770;2023-06-04T07:12:07;5.13;;;0.70;;
45039;SDS011;30778;53.574;7.770;2023-06-04T07:14:33;2.80;;;0.57;;
45039;SDS011;30778;53.574;7.770;2023-06-04T07:16:59;2.10;;;0.40;;
45039;SDS011;30778;53.574;7.770;2023-06-04T07:19:25;5.65;;;0.82;;
45039;SDS011;30778;53.574;7.770;2023-06-04T07:21:53;3.38;;;0.90;;
45039;SDS011;30778;53.574;7.770;2023-06-04T07:24:20;2.47;;;0.50;;
45039;SDS011;30778;53.574;7.770;2023-06-04T07:26:46;3.35;;;0.55;;
45039;SDS011;30778;53.574;7.770;2023-06-04T07:29:12;4.53;;;0.60;;
45039;SDS011;30778;53.574;7.770;2023-06-04T07:31:38;4.50;;;0.40;;
45039;SDS011;30778;53.574;7.770;2023-06-04T07:34:03;1.92;;;0.40;;
45039;SDS011;30778;53.574;7.770;2023-06-04T07:36:29;4.85;;;0.73;;
45039;SDS011;30778;53.574;7.770;2023-06-04T07:38:56;1.40;;;0.32;;
45039;SDS011;30778;53.574;7.770;2023-06-04T07:41:22;3.05;;;0.50;;
45039;SDS011;30778;53.574;7.770;2023-06-04T07:43:47;2.83;;;0.30;;
45039;SDS011;30778;53.574;7.770;2023-06-04T07:46:13;4.18;;;0.30;;
45039;SDS011;30778;53.574;7.770;2023-06-04T07:48:39;1.98;;;0.43;;
45039;SDS011;30778;53.574;7.770;2023-06-04T07:51:04;1.25;;;0.30;;
45039;SDS011;30778;53.574;7.770;2023-06-04T07:53:30;1.17;;;0.28;;
45039;SDS011;30778;53.574;7.770;2023-06-04T07:55:56;3.88;;;0.35;;
45039;SDS011;30778;53.574;7.770;2023-06-04T07:58:22;1.58;;;0.17;;
45039;SDS011;30778;53.574;7.770;2023-06-04T08:00:48;3.78;;;0.60;;
45039;SDS011;30778;53.574;7.770;2023-06-04T08:03:13;3.15;;;0.43;;
45039;SDS011;30778;53.574;7.770;2023-06-04T08:05:40;3.40;;;0.50;;
45039;SDS011;30778;53.574;7.770;2023-06-04T08:08:06;1.42;;;0.30;;
45039;SDS011;30778;53.574;7.770;2023-06-04T08:10:31;2.53;;;0.60;;
45039;SDS011;30778;53.574;7.770;2023-06-04T08:12:57;1.20;;;0.30;;
45039;SDS011;30778;53.574;7.770;2023-06-04T08:15:23;2.33;;;0.50;;
45039;SDS011;30778;53.574;7.770;2023-06-04T08:17:49;3.70;;;0.43;;
45039;SDS011;30778;53.574;7.770;2023-06-04T08:20:14;1.63;;;0.60;;
45039;SDS011;30778;53.574;7.770;2023-06-04T08:22:40;2.33;;;0.50;;
45039;SDS011;30778;53.574;7.770;2023-06-04T08:25:06;1.10;;;0.30;;
45039;SDS011;30778;53.574;7.770;2023-06-04T08:27:32;2.72;;;0.40;;
45039;SDS011;30778;53.574;7.770;2023-06-04T08:29:57;1.95;;;0.30;;
45039;SDS011;30778;53.574;7.770;2023-06-04T08:32:23;1.70;;;0.40;;
45039;SDS011;30778;53.574;7.770;2023-06-04T08:34:49;2.78;;;0.77;;
45039;SDS011;30778;53.574;7.770;2023-06-04T08:37:16;4.25;;;0.90;;
45039;SDS011;30778;53.574;7.770;2023-06-04T08:39:42;2.45;;;0.30;;
45039;SDS011;30778;53.574;7.770;2023-06-04T08:42:09;6.57;;;0.60;;
45039;SDS011;30778;53.574;7.770;2023-06-04T08:44:54;1.58;;;0.32;;
45039;SDS011;30778;53.574;7.770;2023-06-04T08:47:22;4.65;;;0.43;;
45039;SDS011;30778;53.574;7.770;2023-06-04T08:49:50;5.60;;;0.35;;
45039;SDS011;30778;53.574;7.770;2023-06-04T08:52:16;3.83;;;0.30;;
45039;SDS011;30778;53.574;7.770;2023-06-04T08:54:42;3.65;;;0.60;;
45039;SDS011;30778;53.574;7.770;2023-06-04T08:57:08;2.65;;;0.60;;
45039;SDS011;30778;53.574;7.770;2023-06-04T08:59:35;2.60;;;0.40;;
45039;SDS011;30778;53.574;7.770;2023-06-04T09:02:00;2.30;;;0.40;;
45039;SDS011;30778;53.574;7.770;2023-06-04T09:04:26;1.23;;;0.35;;
45039;SDS011;30778;53.574;7.770;2023-06-04T09:06:54;2.42;;;0.60;;
45039;SDS011;30778;53.574;7.770;2023-06-04T09:09:20;4.13;;;0.50;;
45039;SDS011;30778;53.574;7.770;2023-06-04T09:14:17;3.00;;;0.35;;
45039;SDS011;30778;53.574;7.770;2023-06-04T09:16:47;1.73;;;0.40;;
45039;SDS011;30778;53.574;7.770;2023-06-04T09:19:15;1.55;;;0.30;;
45039;SDS011;30778;53.574;7.770;2023-06-04T09:24:17;2.40;;;0.40;;
45039;SDS011;30778;53.574;7.770;2023-06-04T09:26:46;1.00;;;0.30;;
45039;SDS011;30778;53.574;7.770;2023-06-04T09:29:12;2.47;;;0.40;;
45039;SDS011;30778;53.574;7.770;2023-06-04T09:31:41;5.57;;;0.43;;
45039;SDS011;30778;53.574;7.770;2023-06-04T09:34:09;9.82;;;0.90;;
45039;SDS011;30778;53.574;7.770;2023-06-04T09:36:35;3.00;;;0.35;;
45039;SDS011;30778;53.574;7.770;2023-06-04T09:39:03;5.85;;;0.40;;
45039;SDS011;30778;53.574;7.770;2023-06-04T09:41:30;3.40;;;0.43;;
45039;SDS011;30778;53.574;7.770;2023-06-04T09:43:59;2.22;;;0.32;;
45039;SDS011;30778;53.574;7.770;2023-06-04T09:46:28;2.30;;;0.80;;
45039;SDS011;30778;53.574;7.770;2023-06-04T09:49:03;3.88;;;0.30;;
45039;SDS011;30778;53.574;7.770;2023-06-04T09:51:30;2.30;;;0.93;;
45039;SDS011;30778;53.574;7.770;2023-06-04T09:54:03;1.83;;;0.47;;
45039;SDS011;30778;53.574;7.770;2023-06-04T09:56:29;5.55;;;0.57;;
45039;SDS011;30778;53.574;7.770;2023-06-04T09:58:59;2.38;;;0.45;;
45039;SDS011;30778;53.574;7.770;2023-06-04T10:01:28;7.53;;;0.50;;
45039;SDS011;30778;53.574;7.770;2023-06-04T10:03:55;5.88;;;0.30;;
45039;SDS011;30778;53.574;7.770;2023-06-04T10:06:23;2.92;;;0.63;;
45039;SDS011;30778;53.574;7.770;2023-06-04T10:08:51;3.53;;;0.52;;
45039;SDS011;30778;53.574;7.770;2023-06-04T10:11:26;8.10;;;0.40;;
45039;SDS011;30778;53.574;7.770;2023-06-04T10:14:06;4.63;;;0.73;;
45039;SDS011;30778;53.574;7.770;2023-06-04T10:16:54;2.65;;;0.60;;
45039;SDS011;30778;53.574;7.770;2023-06-04T10:19:23;2.53;;;0.55;;
45039;SDS011;30778;53.574;7.770;2023-06-04T10:21:50;4.07;;;0.50;;
45039;SDS011;30778;53.574;7.770;2023-06-04T10:24:17;3.40;;;0.45;;
45039;SDS011;30778;53.574;7.770;2023-06-04T10:26:45;1.88;;;0.43;;
45039;SDS011;30778;53.574;7.770;2023-06-04T10:29:11;3.40;;;1.00;;
45039;SDS011;30778;53.574;7.770;2023-06-04T10:31:39;5.03;;;0.40;;
45039;SDS011;30778;53.574;7.770;2023-06-04T10:34:06;5.00;;;1.20;;
45039;SDS011;30778;53.574;7.770;2023-06-04T10:36:41;3.42;;;0.30;;
45039;SDS011;30778;53.574;7.770;2023-06-04T10:39:11;3.05;;;0.40;;
45039;SDS011;30778;53.574;7.770;2023-06-04T10:41:36;6.03;;;0.80;;
45039;SDS011;30778;53.574;7.770;2023-06-04T10:44:02;5.68;;;0.80;;
45039;SDS011;30778;53.574;7.770;2023-06-04T10:46:37;3.92;;;0.52;;
45039;SDS011;30778;53.574;7.770;2023-06-04T10:49:08;2.42;;;0.60;;
45039;SDS011;30778;53.574;7.770;2023-06-04T10:51:36;5.20;;;1.00;;
45039;SDS011;30778;53.574;7.770;2023-06-04T10:54:04;4.07;;;0.63;;
45039;SDS011;30778;53.574;7.770;2023-06-04T10:56:31;3.75;;;0.50;;
45039;SDS011;30778;53.574;7.770;2023-06-04T10:58:58;1.73;;;0.43;;
45039;SDS011;30778;53.574;7.770;2023-06-04T11:01:30;3.15;;;0.60;;
45039;SDS011;30778;53.574;7.770;2023-06-04T11:03:57;6.70;;;0.82;;
45039;SDS011;30778;53.574;7.770;2023-06-04T11:06:24;2.92;;;0.47;;
45039;SDS011;30778;53.574;7.770;2023-06-04T11:09:02;2.75;;;0.38;;
45039;SDS011;30778;53.574;7.770;2023-06-04T11:11:29;2.35;;;0.45;;
45039;SDS011;30778;53.574;7.770;2023-06-04T11:13:55;4.03;;;0.70;;
45039;SDS011;30778;53.574;7.770;2023-06-04T11:16:20;4.60;;;0.57;;
45039;SDS011;30778;53.574;7.770;2023-06-04T11:21:47;2.10;;;0.28;;
45039;SDS011;30778;53.574;7.770;2023-06-04T11:24:14;2.28;;;0.45;;
45039;SDS011;30778;53.574;7.770;2023-06-04T11:26:41;2.92;;;0.50;;
45039;SDS011;30778;53.574;7.770;2023-06-04T11:29:07;4.25;;;1.15;;
45039;SDS011;30778;53.574;7.770;2023-06-04T11:31:42;4.80;;;0.45;;
45039;SDS011;30778;53.574;7.770;2023-06-04T11:34:23;7.32;;;0.57;;
45039;SDS011;30778;53.574;7.770;2023-06-04T11:36:49;3.08;;;0.50;;
45039;SDS011;30778;53.574;7.770;2023-06-04T11:39:18;1.73;;;0.45;;
45039;SDS011;30778;53.574;7.770;2023-06-04T11:41:44;5.03;;;0.68;;
45039;SDS011;30778;53.574;7.770;2023-06-04T11:44:10;2.50;;;0.40;;
45039;SDS011;30778;53.574;7.770;2023-06-04T11:46:43;5.07;;;0.40;;
45039;SDS011;30778;53.574;7.770;2023-06-04T11:49:16;3.47;;;0.50;;
45039;SDS011;30778;53.574;7.770;2023-06-04T11:51:49;8.13;;;1.27;;
45039;SDS011;30778;53.574;7.770;2023-06-04T11:54:16;3.92;;;0.52;;
45039;SDS011;30778;53.574;7.770;2023-06-04T11:56:44;8.68;;;0.50;;
45039;SDS011;30778;53.574;7.770;2023-06-04T11:59:11;1.77;;;0.30;;
45039;SDS011;30778;53.574;7.770;2023-06-04T12:01:41;4.25;;;0.60;;
45039;SDS011;30778;53.574;7.770;2023-06-04T12:04:15;3.10;;;0.38;;
45039;SDS011;30778;53.574;7.770;2023-06-04T12:06:52;3.50;;;0.70;;
45039;SDS011;30778;53.574;7.770;2023-06-04T12:09:21;3.30;;;0.43;;
45039;SDS011;30778;53.574;7.770;2023-06-04T12:11:48;2.85;;;0.50;;
45039;SDS011;30778;53.574;7.770;2023-06-04T12:14:17;2.03;;;0.25;;
45039;SDS011;30778;53.574;7.770;2023-06-04T12:17:05;4.82;;;0.40;;
45039;SDS011;30778;53.574;7.770;2023-06-04T12:19:32;2.88;;;0.30;;
45039;SDS011;30778;53.574;7.770;2023-06-04T12:22:02;1.70;;;0.43;;
45039;SDS011;30778;53.574;7.770;2023-06-04T12:24:30;5.65;;;0.50;;
45039;SDS011;30778;53.574;7.770;2023-06-04T12:27:07;6.97;;;1.10;;
45039;SDS011;30778;53.574;7.770;2023-06-04T12:29:34;3.80;;;0.40;;
45039;SDS011;30778;53.574;7.770;2023-06-04T12:32:03;3.00;;;0.28;;
45039;SDS011;30778;53.574;7.770;2023-06-04T12:34:36;1.85;;;0.50;;
45039;SDS011;30778;53.574;7.770;2023-06-04T12:37:02;2.05;;;0.55;;
45039;SDS011;30778;53.574;7.770;2023-06-04T12:39:32;3.88;;;0.60;;
45039;SDS011;30778;53.574;7.770;2023-06-04T12:41:58;1.17;;;0.35;;
45039;SDS011;30778;53.574;7.770;2023-06-04T12:44:24;0.80;;;0.40;;
45039;SDS011;30778;53.574;7.770;2023-06-04T12:46:50;1.48;;;0.47;;
45039;SDS011;30778;53.574;7.770;2023-06-04T12:49:16;1.20;;;0.32;;
45039;SDS011;30778;53.574;7.770;2023-06-04T12:51:42;5.65;;;0.32;;
45039;SDS011;30778;53.574;7.770;2023-06-04T12:54:09;2.55;;;0.75;;
45039;SDS011;30778;53.574;7.770;2023-06-04T12:56:35;4.20;;;0.43;;
45039;SDS011;30778;53.574;7.770;2023-06-04T12:59:01;2.75;;;0.60;;
45039;SDS011;30778;53.574;7.770;2023-06-04T13:01:27;1.40;;;0.40;;
45039;SDS011;30778;53.574;7.770;2023-06-04T13:03:53;6.47;;;0.70;;
45039;SDS011;30778;53.574;7.770;2023-06-04T13:06:18;1.67;;;0.60;;
45039;SDS011;30778;53.574;7.770;2023-06-04T13:08:44;5.47;;;0.93;;
45039;SDS011;30778;53.574;7.770;2023-06-04T13:11:09;1.85;;;0.38;;
45039;SDS011;30778;53.574;7.770;2023-06-04T13:13:36;5.60;;;0.50;;
45039;SDS011;30778;53.574;7.770;2023-06-04T13:16:02;1.20;;;0.40;;
45039;SDS011;30778;53.574;7.770;2023-06-04T13:18:28;5.57;;;0.30;;
45039;SDS011;30778;53.574;7.770;2023-06-04T13:20:53;2.38;;;0.45;;
45039;SDS011;30778;53.574;7.770;2023-06-04T13:23:19;3.65;;;0.40;;
45039;SDS011;30778;53.574;7.770;2023-06-04T13:25:46;2.63;;;0.38;;
45039;SDS011;30778;53.574;7.770;2023-06-04T13:28:11;6.18;;;0.50;;
45039;SDS011;30778;53.574;7.770;2023-06-04T13:30:37;4.00;;;0.82;;
45039;SDS011;30778;53.574;7.770;2023-06-04T13:33:03;3.78;;;0.60;;
45039;SDS011;30778;53.574;7.770;2023-06-04T13:35:30;3.40;;;0.70;;
45039;SDS011;30778;53.574;7.770;2023-06-04T13:37:56;4.07;;;0.63;;
45039;SDS011;30778;53.574;7.770;2023-06-04T13:40:22;2.42;;;0.65;;
45039;SDS011;30778;53.574;7.770;2023-06-04T13:42:47;5.15;;;0.55;;
45039;SDS011;30778;53.574;7.770;2023-06-04T13:45:13;2.42;;;0.40;;
45039;SDS011;30778;53.574;7.770;2023-06-04T13:47:38;3.00;;;0.95;;
45039;SDS011;30778;53.574;7.770;2023-06-04T13:50:05;2.28;;;0.50;;
45039;SDS011;30778;53.574;7.770;2023-06-04T13:52:31;4.72;;;0.52;;
45039;SDS011;30778;53.574;7.770;2023-06-04T13:54:56;1.15;;;0.45;;
45039;SDS011;30778;53.574;7.770;2023-06-04T13:57:25;1.35;;;0.52;;
45039;SDS011;30778;53.574;7.770;2023-06-04T13:59:51;3.70;;;0.63;;
45039;SDS011;30778;53.574;7.770;2023-06-04T14:02:17;3.75;;;0.70;;
45039;SDS011;30778;53.574;7.770;2023-06-04T14:04:42;3.72;;;0.52;;
45039;SDS011;30778;53.574;7.770;2023-06-04T14:07:08;2.40;;;0.55;;
45039;SDS011;30778;53.574;7.770;2023-06-04T14:09:34;3.08;;;0.40;;
45039;SDS011;30778;53.574;7.770;2023-06-04T14:12:02;2.10;;;0.82;;
45039;SDS011;30778;53.574;7.770;2023-06-04T14:14:28;3.13;;;0.60;;
45039;SDS011;30778;53.574;7.770;2023-06-04T14:17:01;1.67;;;0.30;;
45039;SDS011;30778;53.574;7.770;2023-06-04T14:19:28;1.48;;;0.73;;
45039;SDS011;30778;53.574;7.770;2023-06-04T14:21:53;3.10;;;0.60;;
45039;SDS011;30778;53.574;7.770;2023-06-04T14:24:19;6.35;;;0.55;;
45039;SDS011;30778;53.574;7.770;2023-06-04T14:26:45;1.27;;;0.40;;
45039;SDS011;30778;53.574;7.770;2023-06-04T14:29:11;2.70;;;0.70;;
45039;SDS011;30778;53.574;7.770;2023-06-04T14:31:36;2.83;;;1.00;;
45039;SDS011;30778;53.574;7.770;2023-06-04T14:34:03;3.22;;;0.70;;
45039;SDS011;30778;53.574;7.770;2023-06-04T14:36:29;1.80;;;0.65;;
45039;SDS011;30778;53.574;7.770;2023-06-04T14:38:54;4.40;;;0.43;;
45039;SDS011;30778;53.574;7.770;2023-06-04T14:41:20;3.38;;;0.45;;
45039;SDS011;30778;53.574;7.770;2023-06-04T14:43:45;3.47;;;0.57;;
45039;SDS011;30778;53.574;7.770;2023-06-04T14:46:11;3.22;;;0.88;;
45039;SDS011;30778;53.574;7.770;2023-06-04T14:48:36;2.33;;;0.47;;
45039;SDS011;30778;53.574;7.770;2023-06-04T14:51:02;2.13;;;0.75;;
45039;SDS011;30778;53.574;7.770;2023-06-04T14:53:27;2.25;;;0.40;;
45039;SDS011;30778;53.574;7.770;2023-06-04T14:55:53;3.22;;;0.75;;
45039;SDS011;30778;53.574;7.770;2023-06-04T14:58:18;2.45;;;0.70;;
45039;SDS011;30778;53.574;7.770;2023-06-04T15:00:44;7.70;;;0.80;;
45039;SDS011;30778;53.574;7.770;2023-06-04T15:03:10;2.20;;;0.75;;
45039;SDS011;30778;53.574;7.770;2023-06-04T15:05:35;3.53;;;0.52;;
45039;SDS011;30778;53.574;7.770;2023-06-04T15:08:01;2.38;;;0.60;;
45039;SDS011;30778;53.574;7.770;2023-06-04T15:10:28;3.25;;;0.77;;